sensor_id;sensor_type;location;lat;lon;timestamp;pressure;altitude;pressure_sealevel;temperature;humidity
61757;BME280;57225;61.460;24.060;2023-02-20T00:01:34;98772.19;;;-10.23;100.00
61757;BME280;57225;61.460;24.060;2023-02-20T00:04:19;98775.75;;;-10.14;100.00
61757;BME280;57225;61.460;24.060;2023-02-20T00:07:03;98778.47;;;-10.28;100.00
61757;BME280;57225;61.460;24.060;2023-02-20T00:09:48;98779.66;;;-10.34;100.00
61757;BME280;57225;61.460;24.060;2023-02-20T00:12:32;98776.97;;;-10.47;100.00
61757;BME280;57225;61.460;24.060;2023-02-20T00:15:18;98784.53;;;-10.36;100.00
61757;BME280;57225;61.460;24.060;2023-02-20T00:18:03;98778.38;;;-10.23;100.00
61757;BME280;57225;61.460;24.060;2023-02-20T00:20:47;98778.72;;;-10.16;100.00
61757;BME280;57225;61.460;24.060;2023-02-20T00:23:33;98771.06;;;-10.08;100.00
61757;BME280;57225;61.460;24.060;2023-02-20T00:26:17;98762.75;;;-9.98;100.00
61757;BME280;57225;61.460;24.060;2023-02-20T00:29:01;98757.75;;;-10.05;100.00
61757;BME280;57225;61.460;24.060;2023-02-20T00:31:51;98750.84;;;-10.20;100.00
61757;BME280;57225;61.460;24.060;2023-02-20T00:34:36;98750.56;;;-10.18;100.00
61757;BME280;57225;61.460;24.060;2023-02-20T00:37:21;98752.06;;;-10.26;100.00
61757;BME280;57225;61.460;24.060;2023-02-20T00:40:06;98751.84;;;-10.43;100.00
61757;BME280;57225;61.460;24.060;2023-02-20T00:42:51;98735.19;;;-10.31;100.00
61757;BME280;57225;61.460;24.060;2023-02-20T00:45:35;98741.47;;;-10.36;100.00
61757;BME280;57225;61.460;24.060;2023-02-20T00:48:19;98737.69;;;-10.62;100.00
61757;BME280;57225;61.460;24.060;2023-02-20T00:51:05;98749.94;;;-10.83;100.00
61757;BME280;57225;61.460;24.060;2023-02-20T00:53:50;98760.28;;;-10.90;100.00
61757;BME280;57225;61.460;24.060;2023-02-20T00:56:34;98706.09;;;-11.30;100.00
61757;BME280;57225;61.460;24.060;2023-02-20T00:59:19;98759.09;;;-11.17;100.00
61757;BME280;57225;61.460;24.060;2023-02-20T01:02:03;98760.34;;;-11.09;100.00
61757;BME280;57225;61.460;24.060;2023-02-20T01:04:48;98772.09;;;-11.05;100.00
61757;BME280;57225;61.460;24.060;2023-02-20T01:07:32;98772.44;;;-10.79;100.00
61757;BME280;57225;61.460;24.060;2023-02-20T01:10:17;98765.00;;;-10.69;100.00
61757;BME280;57225;61.460;24.060;2023-02-20T01:13:01;98755.66;;;-10.44;100.00
61757;BME280;57225;61.460;24.060;2023-02-20T01:15:46;98759.03;;;-10.38;100.00
61757;BME280;57225;61.460;24.060;2023-02-20T01:18:30;98758.13;;;-10.34;100.00
61757;BME280;57225;61.460;24.060;2023-02-20T01:21:15;98758.72;;;-10.23;100.00
61757;BME280;57225;61.460;24.060;2023-02-20T01:23:59;98752.44;;;-10.19;100.00
61757;BME280;57225;61.460;24.060;2023-02-20T01:26:45;98768.25;;;-10.03;100.00
61757;BME280;57225;61.460;24.060;2023-02-20T01:29:29;98765.44;;;-9.98;100.00
61757;BME280;57225;61.460;24.060;2023-02-20T01:32:14;98766.91;;;-9.92;100.00
61757;BME280;57225;61.460;24.060;2023-02-20T01:34:59;98783.47;;;-9.85;100.00
61757;BME280;57225;61.460;24.060;2023-02-20T01:37:43;98762.13;;;-9.82;100.00
61757;BME280;57225;61.460;24.060;2023-02-20T01:40:27;98756.34;;;-9.75;100.00
61757;BME280;57225;61.460;24.060;2023-02-20T01:43:12;98747.50;;;-9.67;100.00
61757;BME280;57225;61.460;24.060;2023-02-20T01:49:12;98731.13;;;-9.57;100.00
61757;BME280;57225;61.460;24.060;2023-02-20T01:52:27;98735.47;;;-9.47;100.00
61757;BME280;57225;61.460;24.060;2023-02-20T01:55:26;98726.69;;;-9.53;100.00
61757;BME280;57225;61.460;24.060;2023-02-20T01:58:15;98724.00;;;-9.53;100.00
61757;BME280;57225;61.460;24.060;2023-02-20T02:01:02;98730.19;;;-9.52;100.00
61757;BME280;57225;61.460;24.060;2023-02-20T02:03:48;98732.72;;;-9.56;100.00
61757;BME280;57225;61.460;24.060;2023-02-20T02:06:40;98726.69;;;-9.53;100.00
61757;BME280;57225;61.460;24.060;2023-02-20T02:09:35;98736.69;;;-9.53;100.00
61757;BME280;57225;61.460;24.060;2023-02-20T02:12:22;98741.19;;;-9.49;100.00
61757;BME280;57225;61.460;24.060;2023-02-20T02:15:14;98723.03;;;-9.57;100.00
61757;BME280;57225;61.460;24.060;2023-02-20T02:18:12;98740.25;;;-9.44;100.00
61757;BME280;57225;61.460;24.060;2023-02-20T02:24:42;98746.56;;;-9.49;100.00
61757;BME280;57225;61.460;24.060;2023-02-20T02:43:26;98717.34;;;-9.55;100.00
61757;BME280;57225;61.460;24.060;2023-02-20T02:46:40;98722.66;;;-9.42;100.00
61757;BME280;57225;61.460;24.060;2023-02-20T02:49:30;98713.31;;;-9.36;100.00
61757;BME280;57225;61.460;24.060;2023-02-20T02:52:19;98714.81;;;-9.29;100.00
61757;BME280;57225;61.460;24.060;2023-02-20T02:55:29;98701.66;;;-9.31;100.00
61757;BME280;57225;61.460;24.060;2023-02-20T02:58:14;98693.34;;;-9.35;100.00
61757;BME280;57225;61.460;24.060;2023-02-20T03:01:01;98696.84;;;-9.34;100.00
61757;BME280;57225;61.460;24.060;2023-02-20T03:03:47;98698.06;;;-9.40;100.00
61757;BME280;57225;61.460;24.060;2023-02-20T03:06:38;98697.91;;;-9.44;100.00
61757;BME280;57225;61.460;24.060;2023-02-20T03:09:30;98701.06;;;-9.42;100.00
61757;BME280;57225;61.460;24.060;2023-02-20T03:12:17;98696.38;;;-9.36;100.00
61757;BME280;57225;61.460;24.060;2023-02-20T03:15:10;98677.25;;;-9.48;100.00
61757;BME280;57225;61.460;24.060;2023-02-20T03:18:22;98694.41;;;-9.44;100.00
61757;BME280;57225;61.460;24.060;2023-02-20T03:21:17;98699.00;;;-9.45;100.00
61757;BME280;57225;61.460;24.060;2023-02-20T03:24:04;98682.97;;;-9.50;100.00
61757;BME280;57225;61.460;24.060;2023-02-20T03:26:50;98675.84;;;-9.46;100.00
61757;BME280;57225;61.460;24.060;2023-02-20T03:29:36;98679.50;;;-9.42;100.00
61757;BME280;57225;61.460;24.060;2023-02-20T03:32:23;98669.72;;;-9.38;100.00
61757;BME280;57225;61.460;24.060;2023-02-20T03:35:29;98666.53;;;-9.40;100.00
61757;BME280;57225;61.460;24.060;2023-02-20T03:38:37;98668.06;;;-9.47;100.00
61757;BME280;57225;61.460;24.060;2023-02-20T03:41:43;98675.25;;;-9.43;100.00
61757;BME280;57225;61.460;24.060;2023-02-20T03:44:47;98667.31;;;-9.39;100.00
61757;BME280;57225;61.460;24.060;2023-02-20T03:47:33;98658.94;;;-9.38;100.00
61757;BME280;57225;61.460;24.060;2023-02-20T03:50:19;98661.50;;;-9.32;100.00
61757;BME280;57225;61.460;24.060;2023-02-20T03:53:23;98646.41;;;-9.33;100.00
61757;BME280;57225;61.460;24.060;2023-02-20T03:56:19;98643.53;;;-9.37;100.00
61757;BME280;57225;61.460;24.060;2023-02-20T03:59:19;98648.72;;;-9.49;100.00
61757;BME280;57225;61.460;24.060;2023-02-20T04:02:10;98638.81;;;-9.54;100.00
61757;BME280;57225;61.460;24.060;2023-02-20T04:04:59;98638.66;;;-9.57;100.00
61757;BME280;57225;61.460;24.060;2023-02-20T04:07:55;98625.78;;;-9.60;100.00
61757;BME280;57225;61.460;24.060;2023-02-20T04:10:50;98626.56;;;-9.60;100.00
61757;BME280;57225;61.460;24.060;2023-02-20T04:13:37;98624.09;;;-9.56;100.00
61757;BME280;57225;61.460;24.060;2023-02-20T04:16:23;98629.53;;;-9.70;100.00
61757;BME280;57225;61.460;24.060;2023-02-20T04:19:07;98625.38;;;-9.76;100.00
61757;BME280;57225;61.460;24.060;2023-02-20T04:21:55;98611.28;;;-9.73;100.00
61757;BME280;57225;61.460;24.060;2023-02-20T04:24:45;98608.25;;;-9.80;100.00
61757;BME280;57225;61.460;24.060;2023-02-20T04:27:31;98622.38;;;-9.74;100.00
61757;BME280;57225;61.460;24.060;2023-02-20T04:30:16;98612.88;;;-9.72;100.00
61757;BME280;57225;61.460;24.060;2023-02-20T04:33:00;98604.41;;;-9.79;100.00
61757;BME280;57225;61.460;24.060;2023-02-20T04:35:45;98604.25;;;-9.83;100.00
61757;BME280;57225;61.460;24.060;2023-02-20T04:38:29;98585.56;;;-10.01;100.00
61757;BME280;57225;61.460;24.060;2023-02-20T04:41:14;98600.00;;;-9.97;100.00
61757;BME280;57225;61.460;24.060;2023-02-20T04:43:58;98607.00;;;-9.96;100.00
61757;BME280;57225;61.460;24.060;2023-02-20T04:47:10;98609.09;;;-9.93;100.00
61757;BME280;57225;61.460;24.060;2023-02-20T04:49:55;98613.06;;;-9.91;100.00
61757;BME280;57225;61.460;24.060;2023-02-20T04:52:39;98618.75;;;-9.92;100.00
61757;BME280;57225;61.460;24.060;2023-02-20T04:55:25;98613.25;;;-9.87;100.00
61757;BME280;57225;61.460;24.060;2023-02-20T04:58:10;98615.44;;;-9.89;100.00
61757;BME280;57225;61.460;24.060;2023-02-20T05:00:54;98614.28;;;-9.97;100.00
61757;BME280;57225;61.460;24.060;2023-02-20T05:03:39;98609.94;;;-10.06;100.00
61757;BME280;57225;61.460;24.060;2023-02-20T05:06:23;98598.50;;;-10.12;100.00
61757;BME280;57225;61.460;24.060;2023-02-20T05:09:07;98600.75;;;-10.05;100.00
61757;BME280;57225;61.460;24.060;2023-02-20T05:11:54;98595.84;;;-10.03;100.00
61757;BME280;57225;61.460;24.060;2023-02-20T05:14:38;98596.53;;;-9.98;100.00
61757;BME280;57225;61.460;24.060;2023-02-20T05:17:23;98592.72;;;-9.97;100.00
61757;BME280;57225;61.460;24.060;2023-02-20T05:20:08;98588.25;;;-10.01;100.00
61757;BME280;57225;61.460;24.060;2023-02-20T05:22:52;98594.75;;;-10.02;100.00
61757;BME280;57225;61.460;24.060;2023-02-20T05:25:36;98574.78;;;-10.01;100.00
61757;BME280;57225;61.460;24.060;2023-02-20T05:28:21;98561.81;;;-9.99;100.00
61757;BME280;57225;61.460;24.060;2023-02-20T05:31:06;98557.75;;;-10.10;100.00
61757;BME280;57225;61.460;24.060;2023-02-20T05:33:50;98552.88;;;-10.08;100.00
61757;BME280;57225;61.460;24.060;2023-02-20T05:36:35;98553.38;;;-10.06;100.00
61757;BME280;57225;61.460;24.060;2023-02-20T05:39:20;98551.22;;;-9.96;100.00
61757;BME280;57225;61.460;24.060;2023-02-20T05:42:05;98535.66;;;-9.99;100.00
61757;BME280;57225;61.460;24.060;2023-02-20T05:44:49;98531.88;;;-9.98;100.00
61757;BME280;57225;61.460;24.060;2023-02-20T05:47:36;98519.81;;;-10.00;100.00
61757;BME280;57225;61.460;24.060;2023-02-20T05:50:21;98521.16;;;-9.89;100.00
61757;BME280;57225;61.460;24.060;2023-02-20T05:53:06;98515.91;;;-9.94;100.00
61757;BME280;57225;61.460;24.060;2023-02-20T05:55:51;98506.28;;;-9.87;100.00
61757;BME280;57225;61.460;24.060;2023-02-20T05:58:35;98514.22;;;-9.82;100.00
61757;BME280;57225;61.460;24.060;2023-02-20T06:01:22;98504.59;;;-9.74;100.00
61757;BME280;57225;61.460;24.060;2023-02-20T06:04:06;98494.78;;;-9.70;100.00
61757;BME280;57225;61.460;24.060;2023-02-20T06:06:52;98491.63;;;-9.63;100.00
61757;BME280;57225;61.460;24.060;2023-02-20T06:09:41;98473.81;;;-9.73;100.00
61757;BME280;57225;61.460;24.060;2023-02-20T06:12:25;98468.63;;;-9.69;100.00
61757;BME280;57225;61.460;24.060;2023-02-20T06:15:10;98472.78;;;-9.63;100.00
61757;BME280;57225;61.460;24.060;2023-02-20T06:17:54;98458.81;;;-9.65;100.00
61757;BME280;57225;61.460;24.060;2023-02-20T06:20:39;98457.41;;;-9.63;100.00
61757;BME280;57225;61.460;24.060;2023-02-20T06:23:23;98460.44;;;-9.56;100.00
61757;BME280;57225;61.460;24.060;2023-02-20T06:26:08;98462.50;;;-9.53;100.00
61757;BME280;57225;61.460;24.060;2023-02-20T06:28:52;98437.88;;;-9.68;100.00
61757;BME280;57225;61.460;24.060;2023-02-20T06:31:37;98447.91;;;-9.52;100.00
61757;BME280;57225;61.460;24.060;2023-02-20T06:34:22;98454.78;;;-9.37;100.00
61757;BME280;57225;61.460;24.060;2023-02-20T06:55:46;98430.22;;;-9.18;100.00
61757;BME280;57225;61.460;24.060;2023-02-20T06:58:31;98427.53;;;-9.10;100.00
61757;BME280;57225;61.460;24.060;2023-02-20T07:01:17;98430.41;;;-8.98;100.00
61757;BME280;57225;61.460;24.060;2023-02-20T07:04:01;98423.59;;;-8.95;100.00
61757;BME280;57225;61.460;24.060;2023-02-20T07:06:46;98403.44;;;-8.89;100.00
61757;BME280;57225;61.460;24.060;2023-02-20T07:09:30;98400.44;;;-8.79;100.00
61757;BME280;57225;61.460;24.060;2023-02-20T07:12:15;98405.16;;;-8.76;100.00
61757;BME280;57225;61.460;24.060;2023-02-20T07:14:59;98400.72;;;-8.72;100.00
61757;BME280;57225;61.460;24.060;2023-02-20T07:17:44;98391.19;;;-8.78;100.00
61757;BME280;57225;61.460;24.060;2023-02-20T07:20:28;98376.94;;;-8.87;100.00
61757;BME280;57225;61.460;24.060;2023-02-20T07:23:12;98391.19;;;-8.69;100.00
61757;BME280;57225;61.460;24.060;2023-02-20T07:25:57;98384.03;;;-8.65;100.00
61757;BME280;57225;61.460;24.060;2023-02-20T07:28:41;98381.34;;;-8.57;100.00
61757;BME280;57225;61.460;24.060;2023-02-20T07:31:26;98339.91;;;-8.69;100.00
61757;BME280;57225;61.460;24.060;2023-02-20T07:34:11;98353.97;;;-8.46;100.00
61757;BME280;57225;61.460;24.060;2023-02-20T07:36:55;98348.75;;;-8.43;100.00
61757;BME280;57225;61.460;24.060;2023-02-20T07:39:40;98343.19;;;-8.46;100.00
61757;BME280;57225;61.460;24.060;2023-02-20T07:42:24;98330.75;;;-8.30;100.00
61757;BME280;57225;61.460;24.060;2023-02-20T07:45:10;98344.72;;;-8.28;100.00
61757;BME280;57225;61.460;24.060;2023-02-20T07:47:54;98331.66;;;-8.26;100.00
61757;BME280;57225;61.460;24.060;2023-02-20T07:50:38;98320.84;;;-8.26;100.00
61757;BME280;57225;61.460;24.060;2023-02-20T07:53:23;98317.63;;;-8.11;100.00
61757;BME280;57225;61.460;24.060;2023-02-20T07:56:08;98323.44;;;-8.00;100.00
61757;BME280;57225;61.460;24.060;2023-02-20T07:58:52;98310.84;;;-7.96;100.00
61757;BME280;57225;61.460;24.060;2023-02-20T08:01:36;98311.38;;;-7.74;100.00
61757;BME280;57225;61.460;24.060;2023-02-20T08:04:21;98319.56;;;-7.61;100.00
61757;BME280;57225;61.460;24.060;2023-02-20T08:07:05;98302.03;;;-7.55;100.00
61757;BME280;57225;61.460;24.060;2023-02-20T08:09:50;98307.56;;;-7.52;100.00
61757;BME280;57225;61.460;24.060;2023-02-20T08:12:34;98304.53;;;-7.50;100.00
61757;BME280;57225;61.460;24.060;2023-02-20T08:15:20;98269.47;;;-7.59;100.00
61757;BME280;57225;61.460;24.060;2023-02-20T08:18:04;98287.78;;;-7.23;100.00
61757;BME280;57225;61.460;24.060;2023-02-20T08:20:48;98285.22;;;-6.86;100.00
61757;BME280;57225;61.460;24.060;2023-02-20T08:23:34;98278.34;;;-6.84;100.00
61757;BME280;57225;61.460;24.060;2023-02-20T08:26:20;98270.59;;;-6.73;100.00
61757;BME280;57225;61.460;24.060;2023-02-20T08:29:04;98268.91;;;-6.78;100.00
61757;BME280;57225;61.460;24.060;2023-02-20T08:31:48;98268.72;;;-6.61;100.00
61757;BME280;57225;61.460;24.060;2023-02-20T08:34:33;98255.47;;;-6.74;100.00
61757;BME280;57225;61.460;24.060;2023-02-20T08:37:17;98250.84;;;-6.74;100.00
61757;BME280;57225;61.460;24.060;2023-02-20T08:40:02;98248.22;;;-6.82;100.00
61757;BME280;57225;61.460;24.060;2023-02-20T08:42:49;98243.81;;;-6.87;100.00
61757;BME280;57225;61.460;24.060;2023-02-20T08:45:33;98242.72;;;-6.74;100.00
61757;BME280;57225;61.460;24.060;2023-02-20T08:48:18;98237.31;;;-6.62;100.00
61757;BME280;57225;61.460;24.060;2023-02-20T08:51:03;98238.34;;;-6.54;100.00
61757;BME280;57225;61.460;24.060;2023-02-20T08:53:48;98243.78;;;-6.30;100.00
61757;BME280;57225;61.460;24.060;2023-02-20T08:56:32;98228.44;;;-6.26;100.00
61757;BME280;57225;61.460;24.060;2023-02-20T08:59:17;98232.94;;;-6.05;100.00
61757;BME280;57225;61.460;24.060;2023-02-20T09:02:01;98230.16;;;-5.81;100.00
61757;BME280;57225;61.460;24.060;2023-02-20T09:04:46;98223.75;;;-5.77;100.00
61757;BME280;57225;61.460;24.060;2023-02-20T09:07:31;98221.66;;;-5.68;100.00
61757;BME280;57225;61.460;24.060;2023-02-20T09:10:20;98222.25;;;-5.74;100.00
61757;BME280;57225;61.460;24.060;2023-02-20T09:13:04;98219.22;;;-5.73;100.00
61757;BME280;57225;61.460;24.060;2023-02-20T09:15:48;98211.88;;;-5.84;100.00
61757;BME280;57225;61.460;24.060;2023-02-20T09:18:33;98207.06;;;-5.91;100.00
61757;BME280;57225;61.460;24.060;2023-02-20T09:21:18;98207.47;;;-5.77;100.00
61757;BME280;57225;61.460;24.060;2023-02-20T09:24:04;98201.31;;;-5.89;100.00
61757;BME280;57225;61.460;24.060;2023-02-20T09:26:49;98194.91;;;-5.81;100.00
61757;BME280;57225;61.460;24.060;2023-02-20T09:29:33;98191.78;;;-5.83;100.00
61757;BME280;57225;61.460;24.060;2023-02-20T09:32:22;98191.06;;;-5.80;100.00
61757;BME280;57225;61.460;24.060;2023-02-20T09:35:06;98188.56;;;-5.73;100.00
61757;BME280;57225;61.460;24.060;2023-02-20T09:37:52;98185.72;;;-5.92;100.00
61757;BME280;57225;61.460;24.060;2023-02-20T09:40:36;98181.41;;;-5.93;100.00
61757;BME280;57225;61.460;24.060;2023-02-20T09:43:29;98177.81;;;-5.97;100.00
61757;BME280;57225;61.460;24.060;2023-02-20T09:46:20;98169.69;;;-5.97;100.00
61757;BME280;57225;61.460;24.060;2023-02-20T09:49:18;98168.78;;;-5.89;100.00
61757;BME280;57225;61.460;24.060;2023-02-20T09:52:06;98165.44;;;-5.83;100.00
61757;BME280;57225;61.460;24.060;2023-02-20T09:55:01;98154.16;;;-5.85;99.36
61757;BME280;57225;61.460;24.060;2023-02-20T09:57:51;98157.75;;;-5.81;99.41
61757;BME280;57225;61.460;24.060;2023-02-20T10:00:36;98156.38;;;-6.02;100.00
61757;BME280;57225;61.460;24.060;2023-02-20T10:03:36;98139.41;;;-5.99;100.00
61757;BME280;57225;61.460;24.060;2023-02-20T10:06:26;98135.25;;;-6.09;100.00
61757;BME280;57225;61.460;24.060;2023-02-20T10:09:12;98132.41;;;-6.00;100.00
61757;BME280;57225;61.460;24.060;2023-02-20T10:15:13;98129.84;;;-6.09;100.00
61757;BME280;57225;61.460;24.060;2023-02-20T10:18:14;98120.78;;;-6.01;100.00
61757;BME280;57225;61.460;24.060;2023-02-20T10:21:07;98110.28;;;-6.02;100.00
61757;BME280;57225;61.460;24.060;2023-02-20T10:24:17;98105.09;;;-6.07;100.00
61757;BME280;57225;61.460;24.060;2023-02-20T10:27:48;98100.91;;;-6.05;100.00
61757;BME280;57225;61.460;24.060;2023-02-20T10:30:40;98091.97;;;-6.05;100.00
61757;BME280;57225;61.460;24.060;2023-02-20T10:33:37;98080.66;;;-5.80;100.00
61757;BME280;57225;61.460;24.060;2023-02-20T10:39:19;98064.31;;;-5.83;100.00
61757;BME280;57225;61.460;24.060;2023-02-20T10:42:15;98056.38;;;-5.76;100.00
61757;BME280;57225;61.460;24.060;2023-02-20T10:45:11;98052.41;;;-5.51;100.00
61757;BME280;57225;61.460;24.060;2023-02-20T10:48:01;98045.41;;;-5.52;100.00
61757;BME280;57225;61.460;24.060;2023-02-20T10:51:08;98029.38;;;-5.41;100.00
61757;BME280;57225;61.460;24.060;2023-02-20T10:54:26;98022.47;;;-5.39;100.00
61757;BME280;57225;61.460;24.060;2023-02-20T11:00:06;98006.38;;;-5.32;100.00
61757;BME280;57225;61.460;24.060;2023-02-20T11:03:03;97999.97;;;-5.23;100.00
61757;BME280;57225;61.460;24.060;2023-02-20T11:05:53;97993.47;;;-5.03;100.00
61757;BME280;57225;61.460;24.060;2023-02-20T11:08:38;97984.28;;;-5.14;100.00
61757;BME280;57225;61.460;24.060;2023-02-20T11:11:32;97978.59;;;-5.09;100.00
61757;BME280;57225;61.460;24.060;2023-02-20T11:14:55;97964.84;;;-5.16;100.00
61757;BME280;57225;61.460;24.060;2023-02-20T11:17:32;97951.50;;;-5.06;100.00
61757;BME280;57225;61.460;24.060;2023-02-20T11:20:39;97949.56;;;-5.05;100.00
61757;BME280;57225;61.460;24.060;2023-02-20T11:23:43;97949.13;;;-4.92;100.00
61757;BME280;57225;61.460;24.060;2023-02-20T11:26:31;97935.66;;;-5.04;100.00
61757;BME280;57225;61.460;24.060;2023-02-20T11:29:18;97937.34;;;-4.80;100.00
61757;BME280;57225;61.460;24.060;2023-02-20T11:32:26;97919.22;;;-4.57;100.00
61757;BME280;57225;61.460;24.060;2023-02-20T11:35:21;97914.34;;;-4.48;100.00
61757;BME280;57225;61.460;24.060;2023-02-20T11:38:22;97914.34;;;-4.48;100.00
61757;BME280;57225;61.460;24.060;2023-02-20T11:47:25;97883.84;;;-3.95;100.00
61757;BME280;57225;61.460;24.060;2023-02-20T11:50:17;97878.91;;;-3.90;99.94
61757;BME280;57225;61.460;24.060;2023-02-20T11:53:03;97869.78;;;-4.01;100.00
61757;BME280;57225;61.460;24.060;2023-02-20T11:55:49;97868.44;;;-4.11;100.00
61757;BME280;57225;61.460;24.060;2023-02-20T11:58:49;97857.50;;;-4.14;100.00
61757;BME280;57225;61.460;24.060;2023-02-20T12:01:34;97851.28;;;-4.15;100.00
61757;BME280;57225;61.460;24.060;2023-02-20T12:04:23;97841.47;;;-3.96;100.00
61757;BME280;57225;61.460;24.060;2023-02-20T12:07:29;97828.72;;;-4.15;100.00
61757;BME280;57225;61.460;24.060;2023-02-20T12:10:21;97822.63;;;-4.31;100.00
61757;BME280;57225;61.460;24.060;2023-02-20T12:13:13;97821.13;;;-4.48;100.00
61757;BME280;57225;61.460;24.060;2023-02-20T12:16:36;97802.72;;;-4.35;100.00
61757;BME280;57225;61.460;24.060;2023-02-20T12:22:46;97787.09;;;-4.19;100.00
61757;BME280;57225;61.460;24.060;2023-02-20T12:35:29;97769.31;;;-4.59;100.00
61757;BME280;57225;61.460;24.060;2023-02-20T12:47:31;97747.16;;;-4.61;100.00
61757;BME280;57225;61.460;24.060;2023-02-20T13:02:47;97727.47;;;-4.77;100.00
61757;BME280;57225;61.460;24.060;2023-02-20T13:05:36;97727.59;;;-4.70;100.00
61757;BME280;57225;61.460;24.060;2023-02-20T13:08:28;97721.50;;;-4.63;100.00
61757;BME280;57225;61.460;24.060;2023-02-20T13:11:20;97716.31;;;-4.72;100.00
61757;BME280;57225;61.460;24.060;2023-02-20T13:17:41;97704.66;;;-4.72;100.00
61757;BME280;57225;61.460;24.060;2023-02-20T13:20:32;97705.75;;;-4.77;100.00
61757;BME280;57225;61.460;24.060;2023-02-20T13:29:20;97691.06;;;-4.72;100.00
61757;BME280;57225;61.460;24.060;2023-02-20T13:38:25;97690.34;;;-4.69;100.00
61757;BME280;57225;61.460;24.060;2023-02-20T13:41:10;97695.59;;;-4.80;100.00
61757;BME280;57225;61.460;24.060;2023-02-20T13:49:57;97682.63;;;-4.90;100.00
61757;BME280;57225;61.460;24.060;2023-02-20T13:52:43;97681.47;;;-4.89;100.00
61757;BME280;57225;61.460;24.060;2023-02-20T13:55:28;97685.75;;;-4.88;100.00
61757;BME280;57225;61.460;24.060;2023-02-20T13:58:14;97684.66;;;-4.83;100.00
61757;BME280;57225;61.460;24.060;2023-02-20T14:01:00;97687.75;;;-4.85;100.00
61757;BME280;57225;61.460;24.060;2023-02-20T14:03:44;97679.94;;;-4.87;100.00
61757;BME280;57225;61.460;24.060;2023-02-20T14:06:29;97680.34;;;-4.88;100.00
61757;BME280;57225;61.460;24.060;2023-02-20T14:09:18;97677.66;;;-4.84;100.00
61757;BME280;57225;61.460;24.060;2023-02-20T14:12:07;97670.75;;;-4.82;100.00
61757;BME280;57225;61.460;24.060;2023-02-20T14:14:56;97667.16;;;-4.86;100.00
61757;BME280;57225;61.460;24.060;2023-02-20T14:17:41;97664.31;;;-4.93;100.00
61757;BME280;57225;61.460;24.060;2023-02-20T14:20:34;97657.50;;;-4.83;100.00
61757;BME280;57225;61.460;24.060;2023-02-20T14:23:24;97650.69;;;-4.74;100.00
61757;BME280;57225;61.460;24.060;2023-02-20T14:26:29;97646.41;;;-4.98;100.00
61757;BME280;57225;61.460;24.060;2023-02-20T14:29:26;97644.91;;;-4.95;100.00
61757;BME280;57225;61.460;24.060;2023-02-20T14:32:12;97630.47;;;-4.99;100.00
61757;BME280;57225;61.460;24.060;2023-02-20T14:38:15;97636.28;;;-5.01;100.00
61757;BME280;57225;61.460;24.060;2023-02-20T14:41:16;97625.03;;;-4.99;100.00
61757;BME280;57225;61.460;24.060;2023-02-20T14:44:03;97614.44;;;-5.08;100.00
61757;BME280;57225;61.460;24.060;2023-02-20T14:47:07;97619.66;;;-4.96;100.00
61757;BME280;57225;61.460;24.060;2023-02-20T14:49:52;97613.03;;;-4.98;100.00
61757;BME280;57225;61.460;24.060;2023-02-20T14:52:37;97611.88;;;-4.97;100.00
61757;BME280;57225;61.460;24.060;2023-02-20T14:55:24;97623.88;;;-4.98;100.00
61757;BME280;57225;61.460;24.060;2023-02-20T14:58:17;97612.19;;;-5.02;100.00
61757;BME280;57225;61.460;24.060;2023-02-20T15:01:12;97615.75;;;-4.98;100.00
61757;BME280;57225;61.460;24.060;2023-02-20T15:04:09;97615.38;;;-4.97;100.00
61757;BME280;57225;61.460;24.060;2023-02-20T15:07:02;97620.16;;;-4.90;100.00
61757;BME280;57225;61.460;24.060;2023-02-20T15:09:49;97620.94;;;-4.90;100.00
61757;BME280;57225;61.460;24.060;2023-02-20T15:12:35;97614.13;;;-5.03;100.00
61757;BME280;57225;61.460;24.060;2023-02-20T15:15:20;97617.75;;;-4.95;100.00
61757;BME280;57225;61.460;24.060;2023-02-20T15:18:11;97614.91;;;-5.02;100.00
61757;BME280;57225;61.460;24.060;2023-02-20T15:20:57;97618.44;;;-4.98;100.00
61757;BME280;57225;61.460;24.060;2023-02-20T15:23:44;97611.34;;;-5.06;100.00
61757;BME280;57225;61.460;24.060;2023-02-20T15:26:34;97612.63;;;-5.00;100.00
61757;BME280;57225;61.460;24.060;2023-02-20T15:29:24;97618.56;;;-4.91;100.00
61757;BME280;57225;61.460;24.060;2023-02-20T15:32:23;97612.31;;;-4.95;100.00
61757;BME280;57225;61.460;24.060;2023-02-20T15:35:15;97613.81;;;-4.98;100.00
61757;BME280;57225;61.460;24.060;2023-02-20T15:38:01;97612.72;;;-4.93;100.00
61757;BME280;57225;61.460;24.060;2023-02-20T15:40:48;97618.53;;;-4.95;100.00
61757;BME280;57225;61.460;24.060;2023-02-20T15:43:33;97619.72;;;-4.92;100.00
61757;BME280;57225;61.460;24.060;2023-02-20T15:46:18;97607.28;;;-4.93;100.00
61757;BME280;57225;61.460;24.060;2023-02-20T15:49:03;97614.25;;;-4.96;100.00
61757;BME280;57225;61.460;24.060;2023-02-20T15:51:48;97588.88;;;-5.03;100.00
61757;BME280;57225;61.460;24.060;2023-02-20T15:54:33;97604.88;;;-4.98;100.00
61757;BME280;57225;61.460;24.060;2023-02-20T15:57:18;97609.16;;;-4.97;100.00
61757;BME280;57225;61.460;24.060;2023-02-20T16:00:02;97605.97;;;-5.03;100.00
61757;BME280;57225;61.460;24.060;2023-02-20T16:02:47;97595.94;;;-4.99;100.00
61757;BME280;57225;61.460;24.060;2023-02-20T16:05:32;97598.00;;;-4.92;100.00
61757;BME280;57225;61.460;24.060;2023-02-20T16:08:16;97597.47;;;-5.01;100.00
61757;BME280;57225;61.460;24.060;2023-02-20T16:11:00;97595.81;;;-5.06;100.00
61757;BME280;57225;61.460;24.060;2023-02-20T16:13:47;97593.19;;;-5.02;100.00
61757;BME280;57225;61.460;24.060;2023-02-20T16:16:36;97595.09;;;-5.03;100.00
61757;BME280;57225;61.460;24.060;2023-02-20T16:19:24;97589.56;;;-5.10;100.00
61757;BME280;57225;61.460;24.060;2023-02-20T16:22:09;97596.50;;;-5.12;100.00
61757;BME280;57225;61.460;24.060;2023-02-20T16:24:54;97584.91;;;-5.09;100.00